LiveATC.Net - Listen to live air traffic control over the Internet!


ICAO: MHRO  IATA: RTB   Airport: Juan Manuel Galvez International Airport
City: Roatan
Country: Honduras   Continent: North America  Region: Central America
MHRO METAR Weather: MHRO 190500Z 36012KT 9999 FEW018 SCT070 24/19 Q1020 A3012 NOSIG
MHRO Flight Activity (FlightAware)
MHRO ATIS
Feed Status: DOWN
Last heard on: 2017-09-07 01:37:02 (134 days 3 hours 45 minutes ago)
MHRO ATIS Audio Archives
FacilityFrequency
Roatan ATIS127.850

MHRO Gnd/Twr/App/Center
Feed Status: DOWN
Last heard on: 2017-10-04 10:39:03 (106 days 18 hours 43 minutes ago)
MHRO Gnd/Twr/App/Center Audio Archives
FacilityFrequency
CENAMER (Center)124.300
La Ceiba Radio128.900
Roatan Ground121.600
Roatan Tower118.100


NOTICE

Unauthorized use prohibited. See LiveATC.net Terms of Service


Find LiveATC Audio Streams


Airport/ARTCC Code

Frequency Search
(e.g., 124.400, 128.75)
Site-wide search
 


Browse LiveATC Feeds
LiveATC Coverage Map
Top 50 LiveATC Feeds
Bad Weather Areas

LiveATC FAQ
Offer a LiveATC Feed
Contact LiveATC.net
Press Inquiries

LiveATC on iPhone
LiveATC on Android

Windows Phone
Windows 8/10

LiveATC Mobile
(Mobile browser)

ATC Audio Archives
Interesting Recordings

LiveATC Forums


Home Page
About LiveATC.net
Make a Donation
Terms of Use
Privacy Policy

Canadian Air Freqs

AIRMETs/SIGMETs

FAA Airport Status
Nat'l Airspace Status
Arrival Demand Charts


Server Software By:
Icecast.org
Liquidsoap